Terminal Aerodrome Forecast
Issued by NWS Bismarck, ND

Home | Current Version | Previous Version | Graphics & Text | Print | Product List | Glossary On
Versions: 1 2 3 4 5 6 7 8 9 10 11 12 13 14 15 16
000
FTUS43 KBIS 211012 AAC
TAFBIS
TAF AMD
KBIS 211012Z 2110/2206 33015KT P6SM VCTS FEW050CB BKN080
      TEMPO 2110/2112 -TSRA BKN050CB
     FM211200 VRB03KT P6SM VCSH BKN070 BKN100
     FM211900 26007KT P6SM SCT050 SCT100
     FM212000 29007KT P6SM SCT120
     FM212200 32008KT P6SM SCT200=

USA.gov is the U.S. government's official web portal to all federal, state and local government web resources and services.